createdAt,value
2018-10-07T00:00:45.413Z,87.16
2018-10-07T00:01:45.442Z,86.68
2018-10-07T00:02:45.455Z,86.11
2018-10-07T00:03:45.482Z,86.78
2018-10-07T00:04:45.505Z,85.86
2018-10-07T00:05:45.548Z,85.19
2018-10-07T00:06:45.558Z,85.58
2018-10-07T00:07:45.561Z,85.53
2018-10-07T00:08:45.925Z,86.21
2018-10-07T00:09:45.627Z,86.01
2018-10-07T00:10:45.633Z,85.77
2018-10-07T00:11:45.656Z,86.40
2018-10-07T00:12:45.686Z,86.68
2018-10-07T00:13:45.694Z,86.88
2018-10-07T00:14:45.712Z,86.88
2018-10-07T00:15:45.751Z,85.72
2018-10-07T00:16:45.769Z,86.01
2018-10-07T00:17:45.778Z,85.92
2018-10-07T00:19:45.828Z,86.01
2018-10-07T00:20:45.846Z,85.48
2018-10-07T00:21:45.864Z,85.10
2018-10-07T00:22:45.903Z,85.53
2018-10-07T00:23:45.924Z,86.40
2018-10-07T00:24:45.933Z,86.88
2018-10-07T00:25:45.962Z,86.40
2018-10-07T00:26:46.017Z,86.21
2018-10-07T00:27:46.009Z,85.86
2018-10-07T00:28:46.014Z,85.82
2018-10-07T00:29:46.038Z,86.68
2018-10-07T00:30:46.072Z,86.58
2018-10-07T00:31:46.081Z,86.34
2018-10-07T00:32:46.095Z,85.38
2018-10-07T00:33:46.128Z,84.23
2018-10-07T00:34:46.138Z,83.80
2018-10-07T00:35:46.162Z,83.89
2018-10-07T00:36:46.189Z,83.80
2018-10-07T00:37:46.277Z,84.08
2018-10-07T00:38:46.231Z,83.65
2018-10-07T00:39:46.254Z,84.42
2018-10-07T00:40:46.277Z,84.81
2018-10-07T00:41:46.304Z,85.19
2018-10-07T00:42:46.313Z,85.38
2018-10-07T00:43:46.332Z,85.10
2018-10-07T00:44:46.355Z,84.71
2018-10-07T00:45:46.376Z,85.19
2018-10-07T00:46:46.399Z,85.10
2018-10-07T00:47:46.423Z,85.67
2018-10-07T00:48:46.505Z,84.71
2018-10-07T00:49:46.463Z,85.72
2018-10-07T00:50:46.500Z,86.01
2018-10-07T00:51:46.523Z,87.60
2018-10-07T00:52:46.530Z,86.58
2018-10-07T00:53:46.549Z,86.68
2018-10-07T00:54:46.579Z,86.40
2018-10-07T00:55:46.588Z,85.77
2018-10-07T00:56:46.606Z,85.38
2018-10-07T00:57:46.633Z,85.34
2018-10-07T00:58:46.660Z,85.63
2018-10-07T00:59:46.677Z,85.92
2018-10-07T01:00:46.691Z,85.58
2018-10-07T01:01:46.731Z,84.04
2018-10-07T01:02:46.739Z,84.81
2018-10-07T01:03:46.760Z,85.72
2018-10-07T01:04:46.787Z,86.49
2018-10-07T01:05:46.804Z,86.40
2018-10-07T01:06:46.816Z,86.30
2018-10-07T01:07:46.835Z,85.82
2018-10-07T01:08:46.865Z,85.82
2018-10-07T01:09:46.890Z,85.82
2018-10-07T01:10:46.899Z,84.91
2018-10-07T01:11:46.919Z,85.44
2018-10-07T01:12:46.944Z,85.92
2018-10-07T01:13:46.968Z,86.01
2018-10-07T01:14:46.999Z,85.82
2018-10-07T01:15:47.018Z,86.21
2018-10-07T01:16:47.034Z,86.64
2018-10-07T01:17:47.053Z,87.70
2018-10-07T01:18:47.084Z,88.17
2018-10-07T01:19:47.093Z,87.07
2018-10-07T01:20:47.120Z,86.78
2018-10-07T01:21:47.139Z,86.40
2018-10-07T01:22:47.152Z,86.01
2018-10-07T01:23:47.187Z,85.53
2018-10-07T01:24:47.231Z,85.44
2018-10-07T01:25:47.217Z,85.44
2018-10-07T01:26:47.255Z,85.72
2018-10-07T01:27:47.274Z,85.53
2018-10-07T01:28:47.289Z,85.82
2018-10-07T01:29:47.312Z,85.44
2018-10-07T01:30:47.338Z,85.72
2018-10-07T01:31:47.347Z,86.64
2018-10-07T01:32:47.366Z,86.25
2018-10-07T01:33:47.394Z,87.12
2018-10-07T01:34:47.414Z,86.35
2018-10-07T01:35:47.431Z,85.92
2018-10-07T01:36:47.455Z,85.05
2018-10-07T01:37:47.470Z,84.86
2018-10-07T01:38:47.490Z,84.67
2018-10-07T01:39:47.521Z,84.00
2018-10-07T01:40:47.576Z,85.34
2018-10-07T01:41:47.560Z,84.77
2018-10-07T01:42:47.579Z,84.95
2018-10-07T01:43:47.608Z,85.72
2018-10-07T01:44:47.620Z,84.28
2018-10-07T01:45:47.641Z,84.48
2018-10-07T01:46:47.658Z,86.01
2018-10-07T01:47:47.679Z,85.34
2018-10-07T01:48:47.711Z,84.86
2018-10-07T01:49:47.722Z,85.49
2018-10-07T01:50:47.744Z,85.53
2018-10-07T01:51:47.811Z,84.67
2018-10-07T01:52:47.790Z,84.19
2018-10-07T01:53:47.812Z,83.37
2018-10-07T01:54:47.831Z,83.61
2018-10-07T01:55:47.862Z,85.30
2018-10-07T01:56:47.879Z,85.78
2018-10-07T01:57:47.907Z,85.78
2018-10-07T01:58:47.911Z,85.68
2018-10-07T01:59:47.950Z,85.78
2018-10-07T02:00:47.956Z,85.82
2018-10-07T02:01:47.974Z,84.48
2018-10-07T02:02:47.996Z,86.35
2018-10-07T02:03:48.028Z,86.16
2018-10-07T02:04:48.080Z,86.25
2018-10-07T02:05:48.081Z,85.68
2018-10-07T02:06:48.081Z,85.39
2018-10-07T02:07:48.103Z,85.78
2018-10-07T02:08:48.122Z,86.74
2018-10-07T02:09:48.147Z,86.54
2018-10-07T02:10:48.168Z,86.98
2018-10-07T02:11:48.193Z,86.64
2018-10-07T02:12:48.212Z,85.78
2018-10-07T02:13:48.233Z,85.15
2018-10-07T02:14:48.247Z,85.34
2018-10-07T02:15:48.267Z,85.05
2018-10-07T02:16:48.287Z,84.38
2018-10-07T02:17:48.310Z,83.61
2018-10-07T02:18:48.333Z,84.53
2018-10-07T02:19:48.344Z,85.78
2018-10-07T02:20:48.367Z,85.05
2018-10-07T02:21:48.415Z,84.95
2018-10-07T02:22:48.407Z,84.38
2018-10-07T02:23:48.432Z,83.33
2018-10-07T02:24:48.460Z,82.85
2018-10-07T02:25:48.486Z,82.51
2018-10-07T02:26:48.495Z,81.74
2018-10-07T02:27:48.511Z,81.74
2018-10-07T02:28:48.568Z,82.27
2018-10-07T02:29:48.557Z,83.04
2018-10-07T02:30:48.575Z,83.14
2018-10-07T02:31:48.611Z,83.71
2018-10-07T02:32:48.615Z,83.42
2018-10-07T02:33:48.643Z,84.53
2018-10-07T02:34:48.661Z,84.15
2018-10-07T02:35:48.679Z,83.95
2018-10-07T02:36:48.708Z,83.71
2018-10-07T02:37:48.719Z,84.44
2018-10-07T02:38:48.741Z,83.95
2018-10-07T02:39:48.795Z,83.42
2018-10-07T02:40:48.782Z,83.04
2018-10-07T02:41:48.805Z,83.86
2018-10-07T02:42:48.826Z,83.95
2018-10-07T02:43:48.855Z,83.58
2018-10-07T02:44:48.866Z,83.04
2018-10-07T02:45:48.881Z,82.27
2018-10-07T02:46:48.901Z,82.46
2018-10-07T02:47:48.928Z,82.32
2018-10-07T02:48:48.950Z,82.04
2018-10-07T02:49:48.980Z,82.81
2018-10-07T02:50:48.992Z,82.27
2018-10-07T02:51:49.016Z,83.38
2018-10-07T02:52:49.023Z,83.38
2018-10-07T02:53:49.050Z,84.72
2018-10-07T02:54:49.073Z,84.58
2018-10-07T02:55:49.095Z,84.97
2018-10-07T02:56:49.163Z,84.72
2018-10-07T02:57:49.194Z,84.34
2018-10-07T02:58:49.157Z,83.95
2018-10-07T02:59:49.187Z,84.15
2018-10-07T03:00:49.199Z,83.58
2018-10-07T03:01:49.216Z,84.05
2018-10-07T03:02:49.248Z,83.95
2018-10-07T03:03:49.260Z,83.95
2018-10-07T03:04:49.349Z,84.05
2018-10-07T03:05:49.313Z,83.58
2018-10-07T03:06:49.334Z,83.86
2018-10-07T03:07:49.427Z,83.95
2018-10-07T03:08:49.365Z,83.38
2018-10-07T03:09:49.389Z,83.82
2018-10-07T03:10:49.408Z,83.86
2018-10-07T03:11:49.427Z,83.76
2018-10-07T03:12:49.448Z,84.11
2018-10-07T03:13:49.480Z,84.68
2018-10-07T03:14:49.493Z,83.67
2018-10-07T03:15:49.517Z,83.09
2018-10-07T03:16:49.535Z,82.52
2018-10-07T03:17:49.549Z,82.04
2018-10-07T03:18:49.562Z,82.62
2018-10-07T03:19:49.603Z,82.14
2018-10-07T03:20:49.614Z,82.71
2018-10-07T03:21:49.629Z,82.90
2018-10-07T03:22:49.653Z,83.82
2018-10-07T03:23:49.671Z,82.90
2018-10-07T03:24:49.709Z,82.62
2018-10-07T03:25:49.712Z,83.92
2018-10-07T03:26:49.734Z,84.49
2018-10-07T03:27:49.764Z,84.68
2018-10-07T03:28:49.775Z,84.20
2018-10-07T03:29:49.800Z,82.96
2018-10-07T03:30:49.827Z,84.49
2018-10-07T03:31:49.980Z,84.30
2018-10-07T03:32:49.859Z,84.30
2018-10-07T03:33:49.885Z,83.72
2018-10-07T03:34:49.901Z,83.09
2018-10-07T03:35:49.945Z,83.00
2018-10-07T03:36:49.941Z,83.53
2018-10-07T03:37:49.960Z,82.81
2018-10-07T03:38:49.988Z,82.14
2018-10-07T03:39:50.008Z,81.95
2018-10-07T03:40:50.028Z,81.66
2018-10-07T03:41:50.047Z,81.08
2018-10-07T03:42:50.067Z,81.85
2018-10-07T03:43:50.089Z,82.14
2018-10-07T03:44:50.102Z,81.95
2018-10-07T03:45:50.132Z,81.66
2018-10-07T03:46:50.162Z,81.66
2018-10-07T03:47:50.168Z,81.66
2018-10-07T03:48:50.220Z,81.27
2018-10-07T03:49:50.209Z,82.04
2018-10-07T03:50:50.234Z,82.29
2018-10-07T03:51:50.255Z,82.67
2018-10-07T03:52:50.276Z,82.76
2018-10-07T03:53:50.332Z,82.67
2018-10-07T03:54:50.315Z,82.57
2018-10-07T03:55:50.327Z,82.62
2018-10-07T03:56:50.356Z,82.57
2018-10-07T03:57:50.369Z,82.76
2018-10-07T03:58:50.394Z,82.32
2018-10-07T03:59:50.424Z,81.66
2018-10-07T04:00:50.434Z,81.85
2018-10-07T04:01:50.449Z,81.66
2018-10-07T04:02:50.475Z,81.46
2018-10-07T04:03:50.497Z,81.46
2018-10-07T04:04:50.513Z,82.00
2018-10-07T04:05:50.533Z,82.57
2018-10-07T04:06:50.558Z,82.57
2018-10-07T04:07:50.575Z,82.96
2018-10-07T04:08:50.593Z,83.34
2018-10-07T04:09:50.617Z,83.87
2018-10-07T04:10:50.700Z,84.35
2018-10-07T04:11:50.659Z,84.45
2018-10-07T04:12:50.680Z,84.30
2018-10-07T04:13:50.696Z,82.96
2018-10-07T04:14:50.715Z,83.63
2018-10-07T04:15:50.743Z,83.63
2018-10-07T04:16:50.759Z,83.63
2018-10-07T04:17:50.787Z,83.44
2018-10-07T04:18:50.802Z,83.05
2018-10-07T04:19:50.823Z,81.56
2018-10-07T04:20:50.845Z,81.52
2018-10-07T04:21:50.858Z,82.96
2018-10-07T04:22:50.889Z,84.26
2018-10-07T04:23:50.901Z,83.97
2018-10-07T04:24:50.932Z,84.74
2018-10-07T04:25:50.948Z,85.12
2018-10-07T04:26:50.983Z,85.21
2018-10-07T04:27:50.993Z,84.83
2018-10-07T04:28:51.007Z,84.20
2018-10-07T04:29:51.033Z,83.15
2018-10-07T04:30:51.049Z,83.78
2018-10-07T04:31:51.065Z,83.34
2018-10-07T04:32:51.090Z,82.86
2018-10-07T04:33:51.111Z,82.76
2018-10-07T04:34:51.221Z,82.67
2018-10-07T04:35:51.156Z,82.29
2018-10-07T04:36:51.168Z,82.57
2018-10-07T04:37:51.185Z,82.09
2018-10-07T04:38:51.210Z,82.57
2018-10-07T04:39:51.268Z,83.25
2018-10-07T04:40:51.251Z,83.68
2018-10-07T04:41:51.266Z,83.63
2018-10-07T04:42:51.296Z,82.67
2018-10-07T04:43:51.318Z,83.15
2018-10-07T04:44:51.332Z,81.90
2018-10-07T04:45:51.352Z,82.29
2018-10-07T04:46:51.376Z,82.92
2018-10-07T04:47:51.408Z,84.64
2018-10-07T04:48:51.416Z,84.83
2018-10-07T04:49:51.446Z,84.55
2018-10-07T04:50:51.464Z,84.35
2018-10-07T04:51:51.472Z,85.02
2018-10-07T04:52:51.497Z,83.78
2018-10-07T04:53:51.513Z,85.46
2018-10-07T04:54:51.539Z,85.69
2018-10-07T04:55:51.555Z,85.21
2018-10-07T04:56:51.581Z,84.35
2018-10-07T04:57:51.607Z,85.21
2018-10-07T04:58:51.619Z,84.92
2018-10-07T04:59:51.641Z,83.92
2018-10-07T05:00:51.655Z,83.34
2018-10-07T05:01:51.682Z,84.16
2018-10-07T05:02:51.715Z,84.78
2018-10-07T05:03:51.720Z,83.15
2018-10-07T05:04:51.740Z,83.15
2018-10-07T05:05:51.762Z,82.38
2018-10-07T05:06:51.791Z,82.19
2018-10-07T05:07:51.801Z,82.09
2018-10-07T05:08:51.826Z,82.76
2018-10-07T05:09:51.841Z,82.96
2018-10-07T05:10:51.859Z,83.92
2018-10-07T05:11:51.887Z,82.38
2018-10-07T05:12:51.918Z,81.71
2018-10-07T05:13:51.970Z,81.66
2018-10-07T05:14:51.941Z,81.43
2018-10-07T05:15:51.958Z,82.48
2018-10-07T05:16:51.985Z,81.95
2018-10-07T05:17:52.007Z,80.85
2018-10-07T05:18:52.026Z,82.09
2018-10-07T05:19:52.038Z,82.57
2018-10-07T05:20:52.097Z,81.71
2018-10-07T05:21:52.080Z,81.90
2018-10-07T05:22:52.099Z,80.79
2018-10-07T05:23:52.136Z,81.96
2018-10-07T05:24:52.141Z,82.92
2018-10-07T05:25:52.165Z,82.09
2018-10-07T05:26:52.199Z,82.00
2018-10-07T05:27:52.201Z,82.48
2018-10-07T05:28:52.234Z,82.00
2018-10-07T05:29:52.247Z,82.38
2018-10-07T05:30:52.281Z,83.49
2018-10-07T05:31:52.283Z,83.39
2018-10-07T05:32:52.311Z,83.78
2018-10-07T05:33:52.335Z,84.45
2018-10-07T05:34:52.339Z,84.06
2018-10-07T05:35:52.429Z,83.11
2018-10-07T05:36:52.383Z,83.78
2018-10-07T05:37:52.401Z,83.20
2018-10-07T05:38:52.431Z,83.01
2018-10-07T05:39:52.456Z,83.68
2018-10-07T05:40:52.494Z,83.59
2018-10-07T05:41:52.486Z,83.01
2018-10-07T05:42:52.505Z,82.48
2018-10-07T05:43:52.522Z,82.67
2018-10-07T05:44:52.594Z,81.90
2018-10-07T05:45:52.571Z,82.00
2018-10-07T05:47:52.609Z,82.73
2018-10-07T05:48:52.629Z,84.06
2018-10-07T05:49:52.646Z,83.68
2018-10-07T05:50:52.664Z,84.26
2018-10-07T05:51:52.688Z,83.87
2018-10-07T05:52:52.708Z,84.16
2018-10-07T05:53:52.757Z,83.78
2018-10-07T05:54:52.781Z,84.16
2018-10-07T05:55:52.767Z,84.74
2018-10-07T05:56:52.792Z,82.57
2018-10-07T05:57:52.812Z,83.20
2018-10-07T05:58:52.836Z,83.34
2018-10-07T05:59:52.853Z,82.19
2018-10-07T06:00:52.881Z,83.34
2018-10-07T06:01:53.013Z,83.01
2018-10-07T06:02:52.913Z,83.20
2018-10-07T06:03:52.933Z,82.92
2018-10-07T06:04:52.951Z,82.76
2018-10-07T06:05:53.072Z,82.57
2018-10-07T06:06:52.996Z,83.68
2018-10-07T06:07:53.017Z,83.59
2018-10-07T06:08:53.049Z,83.39
2018-10-07T06:09:53.057Z,83.59
2018-10-07T06:10:53.081Z,84.55
2018-10-07T06:11:53.096Z,84.55
2018-10-07T06:12:53.112Z,85.94
2018-10-07T06:13:53.143Z,85.55
2018-10-07T06:14:53.240Z,85.41
2018-10-07T06:15:53.196Z,84.74
2018-10-07T06:16:53.252Z,84.92
2018-10-07T06:17:53.221Z,84.68
2018-10-07T06:18:53.349Z,82.86
2018-10-07T06:19:53.265Z,82.57
2018-10-07T06:20:53.281Z,82.19
2018-10-07T06:21:53.300Z,83.49
2018-10-07T06:22:53.317Z,84.74
2018-10-07T06:23:53.333Z,84.16
2018-10-07T06:24:53.350Z,83.72
2018-10-07T06:25:53.384Z,82.76
2018-10-07T06:26:53.400Z,81.62
2018-10-07T06:27:53.418Z,81.46
2018-10-07T06:28:53.449Z,81.18
2018-10-07T06:29:53.577Z,81.37
2018-10-07T06:30:53.484Z,80.60
2018-10-07T06:31:53.498Z,81.08
2018-10-07T06:32:53.522Z,80.79
2018-10-07T06:33:53.547Z,81.13
2018-10-07T06:34:53.557Z,81.43
2018-10-07T06:35:53.584Z,81.62
2018-10-07T06:36:53.597Z,82.96
2018-10-07T06:37:53.617Z,82.38
2018-10-07T06:38:53.634Z,82.29
2018-10-07T06:39:53.699Z,82.96
2018-10-07T06:40:53.677Z,82.67
2018-10-07T06:41:53.720Z,82.48
2018-10-07T06:42:53.752Z,81.95
2018-10-07T06:43:53.745Z,82.00
2018-10-07T06:44:53.764Z,81.56
2018-10-07T06:45:53.837Z,81.75
2018-10-07T06:46:53.824Z,80.99
2018-10-07T06:47:53.824Z,80.22
2018-10-07T06:48:53.840Z,79.74
2018-10-07T06:49:53.858Z,80.12
2018-10-07T06:50:53.885Z,80.51
2018-10-07T06:51:53.901Z,81.66
2018-10-07T06:52:53.938Z,81.66
2018-10-07T06:53:53.942Z,81.95
2018-10-07T06:54:53.966Z,82.04
2018-10-07T06:56:54.002Z,82.14
2018-10-07T06:57:54.034Z,82.42
2018-10-07T06:58:54.042Z,82.71
2018-10-07T06:59:54.065Z,82.52
2018-10-07T07:00:54.083Z,82.48
2018-10-07T07:01:54.129Z,83.34
2018-10-07T07:02:54.124Z,83.38
2018-10-07T07:04:54.166Z,83.72
2018-10-07T07:05:54.183Z,83.63
2018-10-07T07:06:54.202Z,84.11
2018-10-07T07:07:54.229Z,83.63
2018-10-07T07:08:54.285Z,83.58
2018-10-07T07:09:54.265Z,83.72
2018-10-07T07:10:54.287Z,83.53
2018-10-07T07:11:54.308Z,83.29
2018-10-07T07:12:54.354Z,83.09
2018-10-07T07:13:54.353Z,83.29
2018-10-07T07:14:54.371Z,82.62
2018-10-07T07:15:54.384Z,83.00
2018-10-07T07:16:54.408Z,83.76
2018-10-07T07:17:54.430Z,83.19
2018-10-07T07:18:54.448Z,82.71
2018-10-07T07:19:54.589Z,82.42
2018-10-07T07:20:54.502Z,82.14
2018-10-07T07:21:54.519Z,81.70
2018-10-07T07:22:54.541Z,81.89
2018-10-07T07:23:54.548Z,81.79
2018-10-07T07:24:54.576Z,81.51
2018-10-07T07:25:54.591Z,81.70
2018-10-07T07:26:54.612Z,82.23
2018-10-07T07:27:54.628Z,82.42
2018-10-07T07:28:54.651Z,81.95
2018-10-07T07:29:54.671Z,81.89
2018-10-07T07:30:54.692Z,82.27
2018-10-07T07:31:54.714Z,82.08
2018-10-07T07:32:54.725Z,82.37
2018-10-07T07:33:54.748Z,82.37
2018-10-07T07:34:54.769Z,82.85
2018-10-07T07:35:54.797Z,82.85
2018-10-07T07:36:54.839Z,82.37
2018-10-07T07:37:54.847Z,81.16
2018-10-07T07:38:54.851Z,81.07
2018-10-07T07:39:54.872Z,78.55
2018-10-07T07:40:54.898Z,78.03
2018-10-07T07:41:54.948Z,79.44
2018-10-07T07:42:54.939Z,80.58
2018-10-07T07:43:54.956Z,80.97
2018-10-07T07:44:54.983Z,81.60
2018-10-07T07:45:55.014Z,81.74
2018-10-07T07:46:55.028Z,81.07
2018-10-07T07:47:55.039Z,81.54
2018-10-07T07:48:55.127Z,81.45
2018-10-07T07:49:55.074Z,81.26
2018-10-07T07:50:55.104Z,81.16
2018-10-07T07:51:55.122Z,81.07
2018-10-07T07:52:55.141Z,81.74
2018-10-07T07:53:55.159Z,81.74
2018-10-07T07:54:55.177Z,81.84
2018-10-07T07:55:55.199Z,81.98
2018-10-07T07:56:55.219Z,82.56
2018-10-07T07:57:55.244Z,82.21
2018-10-07T07:58:55.263Z,81.54
2018-10-07T07:59:55.284Z,81.84
2018-10-07T08:00:55.311Z,81.74
2018-10-07T08:01:55.330Z,81.74
2018-10-07T08:02:55.343Z,81.54
2018-10-07T08:03:55.371Z,81.64
2018-10-07T08:04:55.379Z,82.56
2018-10-07T08:05:55.404Z,82.03
2018-10-07T08:06:55.418Z,81.93
2018-10-07T08:07:55.447Z,81.84
2018-10-07T08:08:55.517Z,82.70
2018-10-07T08:09:55.489Z,82.31
2018-10-07T08:10:55.512Z,82.60
2018-10-07T08:11:55.600Z,82.21
2018-10-07T08:12:55.556Z,82.27
2018-10-07T08:13:55.617Z,82.85
2018-10-07T08:14:55.587Z,82.94
2018-10-07T08:15:55.604Z,82.75
2018-10-07T08:16:55.623Z,82.46
2018-10-07T08:17:55.747Z,82.56
2018-10-07T08:18:55.672Z,82.79
2018-10-07T08:19:55.692Z,82.70
2018-10-07T08:20:55.713Z,82.79
2018-10-07T08:21:56.482Z,82.85
2018-10-07T08:22:55.802Z,82.21
2018-10-07T08:23:55.820Z,82.79
2018-10-07T08:24:55.789Z,82.51
2018-10-07T08:25:55.814Z,82.41
2018-10-07T08:26:55.840Z,82.41
2018-10-07T08:27:55.854Z,82.03
2018-10-07T08:28:55.876Z,81.93
2018-10-07T08:29:55.903Z,82.31
2018-10-07T08:30:55.924Z,82.41
2018-10-07T08:31:55.937Z,81.64
2018-10-07T08:32:55.959Z,82.41
2018-10-07T08:33:55.972Z,82.16
2018-10-07T08:34:56.010Z,81.97
2018-10-07T08:35:56.013Z,81.30
2018-10-07T08:36:56.050Z,81.01
2018-10-07T08:37:56.055Z,81.68
2018-10-07T08:38:56.085Z,81.74
2018-10-07T08:39:56.100Z,81.93
2018-10-07T08:40:56.126Z,82.12
2018-10-07T08:41:56.157Z,81.97
2018-10-07T08:42:56.175Z,81.97
2018-10-07T08:43:56.199Z,82.16
2018-10-07T08:44:56.203Z,81.78
2018-10-07T08:45:56.250Z,81.78
2018-10-07T08:46:56.246Z,81.97
2018-10-07T08:47:56.264Z,81.78
2018-10-07T08:48:56.403Z,81.97
2018-10-07T08:49:56.378Z,82.45
2018-10-07T08:50:56.333Z,82.16
2018-10-07T08:51:56.349Z,81.97
2018-10-07T08:52:56.391Z,82.45
2018-10-07T08:53:56.387Z,82.16
2018-10-07T08:54:56.410Z,82.07
2018-10-07T08:55:56.484Z,82.26
2018-10-07T08:56:56.460Z,81.68
2018-10-07T08:57:56.483Z,81.78
2018-10-07T08:58:56.512Z,81.78
2018-10-07T08:59:56.515Z,81.59
2018-10-07T09:00:56.542Z,81.59
2018-10-07T09:01:56.565Z,81.78
2018-10-07T09:02:56.597Z,81.97
2018-10-07T09:03:56.614Z,81.87
2018-10-07T09:04:56.628Z,81.82
2018-10-07T09:05:56.645Z,80.96
2018-10-07T09:06:56.667Z,81.34
2018-10-07T09:07:56.683Z,81.82
2018-10-07T09:08:56.760Z,81.92
2018-10-07T09:09:56.730Z,81.82
2018-10-07T09:10:56.756Z,80.96
2018-10-07T09:11:56.769Z,80.57
2018-10-07T09:12:56.795Z,79.65
2018-10-07T09:13:56.831Z,79.75
2018-10-07T09:14:56.838Z,79.84
2018-10-07T09:15:56.855Z,79.94
2018-10-07T09:16:56.915Z,80.42
2018-10-07T09:17:56.901Z,80.61
2018-10-07T09:18:56.923Z,79.84
2018-10-07T09:19:56.943Z,79.55
2018-10-07T09:20:56.989Z,79.27
2018-10-07T09:21:56.981Z,79.17
2018-10-07T09:22:57.016Z,79.65
2018-10-07T09:23:57.035Z,79.75
2018-10-07T09:24:57.051Z,79.61
2018-10-07T09:25:57.069Z,79.27
2018-10-07T09:26:57.206Z,79.46
2018-10-07T09:27:57.226Z,79.36
2018-10-07T09:28:57.134Z,78.78
2018-10-07T09:29:57.157Z,79.27
2018-10-07T09:30:57.177Z,79.55
2018-10-07T09:31:57.202Z,78.78
2018-10-07T09:32:57.302Z,79.65
2018-10-07T09:33:57.244Z,78.98
2018-10-07T09:34:57.272Z,79.17
2018-10-07T09:35:57.287Z,79.07
2018-10-07T09:36:57.328Z,78.88
2018-10-07T09:37:57.365Z,78.88
2018-10-07T09:39:57.436Z,79.36
2018-10-07T09:40:57.486Z,79.36
2018-10-07T09:41:57.430Z,78.50
2018-10-07T09:42:57.437Z,78.69
2018-10-07T09:43:57.466Z,78.78
2018-10-07T09:44:57.480Z,78.78
2018-10-07T09:45:57.512Z,78.59
2018-10-07T09:46:57.608Z,78.50
2018-10-07T09:47:57.568Z,78.69
2018-10-07T09:48:57.560Z,78.59
2018-10-07T09:49:57.612Z,78.78
2018-10-07T09:50:57.612Z,78.30
2018-10-07T09:51:57.697Z,77.67
2018-10-07T09:53:57.685Z,78.34
2018-10-07T09:54:57.700Z,78.53
2018-10-07T09:55:57.716Z,77.92
2018-10-07T09:56:57.755Z,77.86
2018-10-07T09:57:57.824Z,78.15
2018-10-07T09:58:57.781Z,78.34
2018-10-07T09:59:57.800Z,78.15
2018-10-07T10:00:57.829Z,77.86
2018-10-07T10:01:57.850Z,77.86
2018-10-07T10:02:57.866Z,77.58
2018-10-07T10:03:57.966Z,78.06
2018-10-07T10:04:57.923Z,77.76
2018-10-07T10:05:57.944Z,77.86
2018-10-07T10:06:58.001Z,77.58
2018-10-07T10:07:57.972Z,77.67
2018-10-07T10:08:57.997Z,77.38
2018-10-07T10:09:58.030Z,77.09
2018-10-07T10:10:58.081Z,77.29
2018-10-07T10:11:58.095Z,76.90
2018-10-07T10:12:58.083Z,76.90
2018-10-07T10:13:58.170Z,76.71
2018-10-07T10:14:58.137Z,77.29
2018-10-07T10:15:58.165Z,76.90
2018-10-07T10:16:58.185Z,76.81
2018-10-07T10:17:58.208Z,76.81
2018-10-07T10:18:58.231Z,77.48
2018-10-07T10:19:58.244Z,77.09
2018-10-07T10:20:58.263Z,77.29
2018-10-07T10:21:58.293Z,77.38
2018-10-07T10:22:58.320Z,77.29
2018-10-07T10:23:58.353Z,77.48
2018-10-07T10:24:58.344Z,77.29
2018-10-07T10:25:58.367Z,77.09
2018-10-07T10:26:58.398Z,76.90
2018-10-07T10:27:58.413Z,76.52
2018-10-07T10:28:58.431Z,76.90
2018-10-07T10:29:58.459Z,77.00
2018-10-07T10:30:58.486Z,76.94
2018-10-07T10:31:58.504Z,77.38
2018-10-07T10:32:58.524Z,77.42
2018-10-07T10:33:58.573Z,77.42
2018-10-07T10:34:58.571Z,77.04
2018-10-07T10:35:58.594Z,76.56
2018-10-07T10:36:58.714Z,76.75
2018-10-07T10:37:58.640Z,76.71
2018-10-07T10:38:58.658Z,76.84
2018-10-07T10:39:58.698Z,76.84
2018-10-07T10:40:58.701Z,76.75
2018-10-07T10:41:58.757Z,77.04
2018-10-07T10:42:58.748Z,76.75
2018-10-07T10:43:58.787Z,75.88
2018-10-07T10:44:58.786Z,76.07
2018-10-07T10:45:58.813Z,76.07
2018-10-07T10:46:58.830Z,76.17
2018-10-07T10:47:58.870Z,76.17
2018-10-07T10:48:58.879Z,75.59
2018-10-07T10:49:58.898Z,75.49
2018-10-07T10:50:58.926Z,75.15
2018-10-07T10:51:58.948Z,75.31
2018-10-07T10:52:58.974Z,75.11
2018-10-07T10:53:58.988Z,75.59
2018-10-07T10:54:59.019Z,75.15
2018-10-07T10:55:59.036Z,75.24
2018-10-07T10:56:59.062Z,75.15
2018-10-07T10:57:59.088Z,75.24
2018-10-07T10:58:59.109Z,75.05
2018-10-07T10:59:59.132Z,74.96
2018-10-07T11:00:59.219Z,74.76
2018-10-07T11:01:59.177Z,74.57
2018-10-07T11:02:59.222Z,73.84
2018-10-07T11:03:59.228Z,73.26
2018-10-07T11:04:59.270Z,73.16
2018-10-07T11:05:59.291Z,72.59
2018-10-07T11:06:59.313Z,73.26
2018-10-07T11:07:59.322Z,72.97
2018-10-07T11:08:59.370Z,72.91
2018-10-07T11:09:59.388Z,71.76
2018-10-07T11:10:59.406Z,71.28
2018-10-07T11:11:59.429Z,71.31
2018-10-07T11:12:59.464Z,70.35
2018-10-07T11:13:59.575Z,70.54
2018-10-07T11:14:59.514Z,70.64
2018-10-07T11:15:59.546Z,70.06
2018-10-07T11:16:59.570Z,69.61
2018-10-07T11:17:59.591Z,69.32
2018-10-07T11:18:59.631Z,69.23
2018-10-07T11:19:59.645Z,68.87
2018-10-07T11:20:59.677Z,68.49
2018-10-07T11:21:59.708Z,68.01
2018-10-07T11:22:59.728Z,67.62
2018-10-07T11:23:59.760Z,67.33
2018-10-07T11:24:59.780Z,66.05
2018-10-07T11:25:59.851Z,63.05
2018-10-07T11:26:59.847Z,59.91
2018-10-07T11:27:59.863Z,58.78
2018-10-07T11:28:59.892Z,57.81
2018-10-07T11:30:01.115Z,58.75
2018-10-07T11:30:59.959Z,60.92
2018-10-07T11:31:59.989Z,62.53
2018-10-07T11:33:00.003Z,61.89
2018-10-07T11:34:00.048Z,60.01
2018-10-07T11:35:00.062Z,59.98
2018-10-07T11:36:00.096Z,60.24
2018-10-07T11:37:00.115Z,61.11
2018-10-07T11:38:00.136Z,61.02
2018-10-07T11:39:00.167Z,62.70
2018-10-07T11:40:00.190Z,63.92
2018-10-07T11:41:00.250Z,65.08
2018-10-07T11:43:00.269Z,65.72
2018-10-07T11:44:00.303Z,66.01
2018-10-07T11:45:00.322Z,66.49
2018-10-07T11:46:00.351Z,66.75
2018-10-07T11:47:00.368Z,66.59
2018-10-07T11:48:00.497Z,67.17
2018-10-07T11:49:00.425Z,67.14
2018-10-07T11:50:00.467Z,66.75
2018-10-07T11:51:00.490Z,66.85
2018-10-07T11:52:00.518Z,67.71
2018-10-07T11:53:00.524Z,68.10
2018-10-07T11:54:00.561Z,68.01
2018-10-07T11:55:00.595Z,68.01
2018-10-07T11:56:00.602Z,67.81
2018-10-07T11:57:00.634Z,68.10
2018-10-07T11:58:00.664Z,67.91
2018-10-07T11:59:00.733Z,67.71
2018-10-07T12:00:00.740Z,68.10
2018-10-07T12:01:00.752Z,67.91
2018-10-07T12:02:00.795Z,68.01
2018-10-07T12:03:00.802Z,67.91
2018-10-07T12:04:00.812Z,68.19
2018-10-07T12:05:00.829Z,68.10
2018-10-07T12:06:00.870Z,67.62
2018-10-07T12:07:00.889Z,68.10
2018-10-07T12:08:00.920Z,68.01
2018-10-07T12:09:00.935Z,68.19
2018-10-07T12:10:01.041Z,67.97
2018-10-07T12:11:01.003Z,68.16
2018-10-07T12:12:01.015Z,68.35
2018-10-07T12:13:01.040Z,68.55
2018-10-07T12:14:01.063Z,69.13
2018-10-07T12:15:01.080Z,69.03
2018-10-07T12:16:01.108Z,68.84
2018-10-07T12:17:01.129Z,68.84
2018-10-07T12:18:01.161Z,68.84
2018-10-07T12:19:01.199Z,68.93
2018-10-07T12:20:01.216Z,68.93
2018-10-07T12:21:01.236Z,68.84
2018-10-07T12:22:01.265Z,68.45
2018-10-07T12:23:01.335Z,68.55
2018-10-07T12:24:01.307Z,68.26
2018-10-07T12:25:01.354Z,68.59
2018-10-07T12:26:01.418Z,68.68
2018-10-07T12:27:01.391Z,68.29
2018-10-07T12:28:01.464Z,67.68
2018-10-07T12:29:01.536Z,67.91
2018-10-07T12:30:01.455Z,67.68
2018-10-07T12:31:01.483Z,67.71
2018-10-07T12:32:01.511Z,68.19
2018-10-07T12:33:01.598Z,67.81
2018-10-07T12:34:01.609Z,68.10
2018-10-07T12:35:01.744Z,67.91
2018-10-07T12:36:01.687Z,67.91
2018-10-07T12:37:01.701Z,67.71
2018-10-07T12:38:01.704Z,67.62
2018-10-07T12:39:01.676Z,67.52
2018-10-07T12:40:01.792Z,67.71
2018-10-07T12:41:01.744Z,67.71
2018-10-07T12:42:01.795Z,67.14
2018-10-07T12:43:01.807Z,67.62
2018-10-07T12:44:01.801Z,67.62
2018-10-07T12:45:01.842Z,67.43
2018-10-07T12:46:01.896Z,67.23
2018-10-07T12:47:02.067Z,67.14
2018-10-07T12:49:02.094Z,67.14
2018-10-07T12:50:01.956Z,67.23
2018-10-07T12:51:02.062Z,67.62
2018-10-07T12:52:01.999Z,67.52
2018-10-07T12:53:02.042Z,67.71
2018-10-07T12:54:02.132Z,68.01
2018-10-07T12:55:02.081Z,68.10
2018-10-07T12:56:02.118Z,67.71
2018-10-07T12:57:02.122Z,68.29
2018-10-07T12:58:02.195Z,68.87
2018-10-07T12:59:02.182Z,68.68
2018-10-07T13:00:02.198Z,68.39
2018-10-07T13:01:02.285Z,68.68